NCE weather

Nice-Côte d'Azur Airport
Nice, Provence-Alpes-Côte-d'Azur, France

Public forecast

Using degrees Celsius for public forecast. Weather courtesy of forecast.io.

Current aviation weather report (METAR) for Nice-Côte d'Azur Airport

Retrieved 2020/06/02 18:00 UTC (23 minutes ago):

LFMN 021800Z AUTO 17002KT CAVOK 21/17 Q1011 NOSIG

Aviation forecast (TAF) for Nice-Côte d'Azur Airport

Retrieved 2020/06/02 15:53 UTC (2 hours ago):

TAF LFMN 021400Z 0215/0321 22010KT CAVOK TEMPO 0215/0217 14005KT FEW060CB BECMG 0220/0222 35005KT BECMG 0300/0302 06010KT PROB30 TEMPO 0304/0307 BKN012 BECMG 0309/0311 20012KT TEMPO 0311/0316 FEW060CB